Time;durP1;ratioP1;P1;durP2;ratioP2;P2;SDS_P1;SDS_P2;PMS_P1;PMS_P2;Temp;Humidity;BMP_temperature;BMP_pressure;BME280_temperature;BME280_humidity;BME280_pressure;Samples;Min_cycle;Max_cycle;Signal;HPM_P1;HPM_P2
2021/06/13 00:01:13;;;;;;;3.80;3.30;;;13.20;99.90;;;;;;5092738;28;20416;-69
2021/06/13 00:03:40;;;;;;;2.77;2.13;;;13.30;99.90;;;;;;5092275;28;20921;-69
2021/06/13 00:06:08;;;;;;;4.37;3.20;;;13.20;99.90;;;;;;5092657;28;20426;-71
2021/06/13 00:08:36;;;;;;;4.37;2.80;;;13.20;99.90;;;;;;5092062;28;20463;-70
2021/06/13 00:11:03;;;;;;;3.30;2.30;;;13.10;99.90;;;;;;5092193;28;21083;-70
2021/06/13 00:13:31;;;;;;;3.73;2.27;;;13.10;99.90;;;;;;5092292;28;20414;-70
2021/06/13 00:16:00;;;;;;;4.83;2.77;;;13.00;99.90;;;;;;5092330;28;20410;-69
2021/06/13 00:18:28;;;;;;;6.53;3.17;;;12.90;99.90;;;;;;5092073;28;20937;-70
2021/06/13 00:20:56;;;;;;;3.87;2.13;;;12.90;99.90;;;;;;5091612;28;20438;-70
2021/06/13 00:23:24;;;;;;;8.73;3.20;;;13.00;99.90;;;;;;5091435;28;20433;-70
2021/06/13 00:26:12;;;;;;;4.33;2.43;;;12.90;99.90;;;;;;5091870;28;20443;-70
2021/06/13 00:28:39;;;;;;;3.43;3.13;;;12.90;99.90;;;;;;5091589;28;20416;-70
2021/06/13 00:31:08;;;;;;;2.37;1.70;;;12.80;99.90;;;;;;5091851;28;20443;-69
2021/06/13 00:33:36;;;;;;;2.60;2.17;;;12.90;99.90;;;;;;5091982;28;20388;-69
2021/06/13 00:36:04;;;;;;;4.83;3.10;;;12.80;99.90;;;;;;5092379;28;20718;-69
2021/06/13 00:38:32;;;;;;;4.37;2.80;;;12.80;99.90;;;;;;5073230;28;20425;-70
2021/06/13 00:41:00;;;;;;;4.17;2.43;;;12.80;99.90;;;;;;5091288;28;20452;-69
2021/06/13 00:43:28;;;;;;;3.70;2.20;;;12.80;99.90;;;;;;5091285;28;20460;-69
2021/06/13 00:45:56;;;;;;;5.73;2.27;;;12.80;99.90;;;;;;5090012;28;20495;-70
2021/06/13 00:48:25;;;;;;;1.93;1.47;;;12.70;99.90;;;;;;5073170;28;20392;-70
2021/06/13 00:50:55;;;;;;;4.73;2.83;;;12.70;99.90;;;;;;5072526;28;20444;-71
2021/06/13 00:53:23;;;;;;;2.85;2.08;;;12.70;99.90;;;;;;5073026;28;20400;-71
2021/06/13 00:55:59;;;;;;;4.70;3.50;;;12.70;99.90;;;;;;5091566;28;20235;-70
2021/06/13 00:58:29;;;;;;;6.87;2.80;;;12.70;99.90;;;;;;5072534;28;20487;-70
2021/06/13 01:00:58;;;;;;;6.72;3.30;;;12.80;99.90;;;;;;5091199;28;20437;-70
2021/06/13 01:03:30;;;;;;;9.07;2.78;;;12.70;99.90;;;;;;5072837;28;20191;-71
2021/06/13 01:05:58;;;;;;;5.33;2.53;;;12.70;99.90;;;;;;5072853;28;20245;-69
2021/06/13 01:08:33;;;;;;;4.60;2.47;;;12.60;99.90;;;;;;5091071;28;20497;-69
2021/06/13 01:11:11;;;;;;;3.90;2.33;;;12.60;99.90;;;;;;5072802;28;20215;-69
2021/06/13 01:13:47;;;;;;;2.60;1.98;;;12.60;99.90;;;;;;5090602;28;20385;-69
2021/06/13 01:16:25;;;;;;;3.78;2.63;;;12.60;99.90;;;;;;5090934;28;20277;-69
2021/06/13 01:19:00;;;;;;;11.00;2.60;;;12.60;99.90;;;;;;5072245;28;20214;-69
2021/06/13 01:21:33;;;;;;;5.23;2.50;;;12.60;99.90;;;;;;5072621;28;20433;-70
2021/06/13 01:24:09;;;;;;;5.30;2.20;;;12.50;99.90;;;;;;5091218;28;20813;-70
2021/06/13 01:27:16;;;;;;;4.22;2.13;;;12.50;99.90;;;;;;5090950;28;20409;-69
2021/06/13 01:29:46;;;;;;;9.10;3.23;;;12.40;99.90;;;;;;5072652;28;20214;-71
2021/06/13 01:32:18;;;;;;;10.55;2.42;;;12.40;99.90;;;;;;5090803;28;20815;-70
2021/06/13 01:34:50;;;;;;;4.00;1.83;;;12.40;99.90;;;;;;5090289;28;20650;-70
2021/06/13 01:37:25;;;;;;;4.00;2.10;;;12.40;99.90;;;;;;5072265;28;20404;-70
2021/06/13 01:39:59;;;;;;;4.13;1.93;;;12.50;99.90;;;;;;5090629;28;20528;-69
2021/06/13 01:42:31;;;;;;;4.25;2.63;;;12.50;99.90;;;;;;5073404;28;20437;-69
2021/06/13 01:45:06;;;;;;;4.80;2.38;;;12.60;99.90;;;;;;5074044;28;20270;-70
2021/06/13 01:47:36;;;;;;;6.47;2.70;;;12.40;99.90;;;;;;5073972;28;20252;-70
2021/06/13 01:50:07;;;;;;;4.20;2.45;;;12.40;99.90;;;;;;5071690;28;20317;-69
2021/06/13 01:52:38;;;;;;;5.15;2.47;;;12.40;99.90;;;;;;5072189;28;20195;-69
2021/06/13 01:55:11;;;;;;;8.50;3.03;;;12.30;99.90;;;;;;5072472;28;20187;-69
2021/06/13 01:57:41;;;;;;;4.07;2.28;;;12.30;99.90;;;;;;5090679;28;20907;-70
2021/06/13 02:00:27;;;;;;;6.93;2.75;;;12.30;99.90;;;;;;5072191;28;20237;-70
2021/06/13 02:03:05;;;;;;;4.88;2.95;;;12.20;99.90;;;;;;5071874;28;20209;-71
2021/06/13 02:05:42;;;;;;;5.35;2.30;;;12.20;99.90;;;;;;5072161;28;20219;-70
2021/06/13 02:08:11;;;;;;;9.38;3.03;;;12.30;99.90;;;;;;5092417;28;20191;-70
2021/06/13 02:10:48;;;;;;;5.93;2.15;;;12.50;99.90;;;;;;5096905;28;20611;-70
2021/06/13 02:13:17;;;;;;;2.72;2.38;;;12.50;99.90;;;;;;5078696;28;20604;-70
2021/06/13 02:15:54;;;;;;;3.83;2.83;;;12.30;99.90;;;;;;5079289;28;20598;-69
2021/06/13 02:18:25;;;;;;;3.17;2.42;;;12.20;99.90;;;;;;5078590;28;20191;-69
2021/06/13 02:20:56;;;;;;;6.75;1.95;;;12.30;99.90;;;;;;5097163;28;20578;-70
2021/06/13 02:23:25;;;;;;;10.77;2.55;;;12.20;99.90;;;;;;5096888;28;20666;-69
2021/06/13 02:25:54;;;;;;;4.28;2.33;;;12.20;99.90;;;;;;5078751;28;20543;-69
2021/06/13 02:28:23;;;;;;;3.43;1.90;;;12.20;99.90;;;;;;5097101;28;20191;-69
2021/06/13 02:30:55;;;;;;;2.80;2.50;;;12.10;99.90;;;;;;5078424;28;20909;-69
2021/06/13 02:33:23;;;;;;;4.60;2.53;;;12.20;99.90;;;;;;5096587;28;20195;-69
2021/06/13 02:36:00;;;;;;;6.90;3.30;;;12.10;99.90;;;;;;5078552;28;20444;-69
2021/06/13 02:38:28;;;;;;;5.85;2.03;;;12.10;99.90;;;;;;5096653;28;20571;-69
2021/06/13 02:40:57;;;;;;;5.57;3.03;;;11.90;99.90;;;;;;5096407;28;20195;-70
2021/06/13 02:43:25;;;;;;;6.80;2.10;;;11.80;99.90;;;;;;5096269;28;20175;-70
2021/06/13 02:45:55;;;;;;;2.90;2.33;;;11.80;99.90;;;;;;5078198;28;20195;-70
2021/06/13 02:48:24;;;;;;;4.25;2.25;;;11.80;99.90;;;;;;5096981;28;20182;-70
2021/06/13 02:50:56;;;;;;;2.80;2.10;;;11.80;99.90;;;;;;5096237;28;20199;-70
2021/06/13 02:53:32;;;;;;;4.65;2.60;;;11.80;99.90;;;;;;5077826;28;20493;-70
2021/06/13 02:56:07;;;;;;;8.50;2.28;;;11.60;99.90;;;;;;5078485;28;20277;-70
2021/06/13 02:58:40;;;;;;;5.05;2.10;;;11.70;99.90;;;;;;5096560;28;20305;-70
2021/06/13 03:01:12;;;;;;;4.40;2.13;;;11.70;99.90;;;;;;5096502;28;20210;-70
2021/06/13 03:03:43;;;;;;;3.85;1.83;;;11.70;99.90;;;;;;5078228;28;20183;-70
2021/06/13 03:06:15;;;;;;;5.70;2.47;;;11.70;99.90;;;;;;5096625;28;20209;-70
2021/06/13 03:08:44;;;;;;;3.30;2.28;;;11.50;99.90;;;;;;5096697;28;20198;-70
2021/06/13 03:11:13;;;;;;;4.15;2.30;;;11.50;99.90;;;;;;5096247;28;20217;-70
2021/06/13 03:13:44;;;;;;;3.15;2.40;;;11.50;99.90;;;;;;5077732;28;20270;-70
2021/06/13 03:16:15;;;;;;;5.40;3.03;;;11.50;99.90;;;;;;5077958;28;20245;-70
2021/06/13 03:18:46;;;;;;;4.15;2.42;;;11.50;99.90;;;;;;5042022;23;20318;-68
2021/06/13 03:21:15;;;;;;;5.85;2.20;;;11.50;99.90;;;;;;5037505;28;20209;-68
2021/06/13 03:23:43;;;;;;;4.40;2.78;;;11.60;99.90;;;;;;5038659;28;20189;-69
2021/06/13 03:26:13;;;;;;;4.15;2.15;;;11.60;99.90;;;;;;5042865;28;20598;-68
2021/06/13 03:28:44;;;;;;;5.13;2.42;;;11.60;99.90;;;;;;5039111;28;20200;-68
2021/06/13 03:31:15;;;;;;;2.33;1.90;;;11.70;99.90;;;;;;5021473;28;20300;-69
2021/06/13 03:33:44;;;;;;;4.05;2.75;;;11.80;99.90;;;;;;5040014;28;20268;-68
2021/06/13 03:36:14;;;;;;;12.63;3.00;;;11.80;99.90;;;;;;5039931;28;20217;-69
2021/06/13 03:38:45;;;;;;;10.18;2.88;;;12.10;99.90;;;;;;5022302;28;20182;-69
2021/06/13 03:41:17;;;;;;;4.80;2.95;;;12.40;99.90;;;;;;5039432;28;20205;-69
2021/06/13 03:43:46;;;;;;;3.90;2.55;;;12.30;99.90;;;;;;5040739;28;20233;-68
2021/06/13 03:46:17;;;;;;;6.10;2.40;;;12.10;99.90;;;;;;5040842;28;20186;-68
2021/06/13 03:48:46;;;;;;;5.03;2.35;;;12.20;99.90;;;;;;5040174;28;20279;-69
2021/06/13 03:51:14;;;;;;;6.03;2.47;;;12.30;99.90;;;;;;5039169;28;20213;-68
2021/06/13 03:53:54;;;;;;;6.77;2.40;;;12.30;99.90;;;;;;5038876;28;20431;-68
2021/06/13 03:56:27;;;;;;;8.50;2.10;;;12.20;99.90;;;;;;5038238;28;20796;-68
2021/06/13 03:58:56;;;;;;;3.70;2.10;;;12.20;99.90;;;;;;5037376;28;20455;-68
2021/06/13 04:01:27;;;;;;;7.40;2.77;;;12.30;99.90;;;;;;5036239;28;20436;-69
2021/06/13 04:03:56;;;;;;;4.30;2.30;;;12.40;99.90;;;;;;5035874;28;20398;-69
2021/06/13 04:06:25;;;;;;;6.93;3.00;;;12.40;99.90;;;;;;5035547;28;20409;-69
2021/06/13 04:08:55;;;;;;;11.00;2.30;;;12.40;99.90;;;;;;5016731;28;20459;-68
2021/06/13 04:11:25;;;;;;;13.70;2.15;;;12.40;99.90;;;;;;5033976;28;20468;-68
2021/06/13 04:13:54;;;;;;;3.00;1.67;;;12.50;99.90;;;;;;5032335;28;20953;-68
2021/06/13 04:16:24;;;;;;;6.80;2.30;;;12.50;99.90;;;;;;5014616;28;20415;-68
2021/06/13 04:18:54;;;;;;;5.23;2.30;;;12.40;99.90;;;;;;5032138;28;20428;-69
2021/06/13 04:21:23;;;;;;;3.97;2.03;;;12.40;99.90;;;;;;5032137;28;20422;-69
2021/06/13 04:23:52;;;;;;;6.63;2.30;;;12.40;99.90;;;;;;5031855;28;20185;-69
2021/06/13 04:26:22;;;;;;;5.00;2.17;;;12.50;99.90;;;;;;5032287;28;20446;-69
2021/06/13 04:28:52;;;;;;;3.33;1.67;;;13.20;99.90;;;;;;5030950;28;20407;-69
2021/06/13 04:31:21;;;;;;;3.90;2.90;;;13.40;99.90;;;;;;5013147;28;20434;-69
2021/06/13 04:33:50;;;;;;;5.83;3.20;;;13.00;99.90;;;;;;5031306;28;20394;-69
2021/06/13 04:36:24;;;;;;;3.30;2.20;;;12.70;99.90;;;;;;5032264;28;20890;-70
2021/06/13 04:38:53;;;;;;;6.93;1.80;;;12.50;99.90;;;;;;5031790;28;20390;-70
2021/06/13 04:41:21;;;;;;;4.97;2.20;;;12.50;99.90;;;;;;5031935;28;20444;-69
2021/06/13 04:43:49;;;;;;;12.37;3.30;;;12.40;99.90;;;;;;5031428;28;20562;-69
2021/06/13 04:46:21;;;;;;;5.97;2.42;;;12.30;99.90;;;;;;5031750;28;20403;-69
2021/06/13 04:48:50;;;;;;;8.90;2.90;;;12.30;99.90;;;;;;5031554;28;20174;-69
2021/06/13 04:51:19;;;;;;;3.37;1.93;;;12.30;99.90;;;;;;5031156;28;20964;-69
2021/06/13 04:54:30;;;;;;;5.47;2.20;;;12.30;99.90;;;;;;5031340;28;20410;-69
2021/06/13 04:57:14;;;;;;;3.63;2.40;;;12.40;99.90;;;;;;5026815;28;20424;-69
2021/06/13 04:59:42;;;;;;;3.80;1.60;;;12.60;99.90;;;;;;5031239;28;20215;-69
2021/06/13 05:02:10;;;;;;;3.53;1.93;;;12.60;99.90;;;;;;5031121;28;20420;-69
2021/06/13 05:04:39;;;;;;;5.77;2.17;;;12.60;99.90;;;;;;5031329;28;20857;-69
2021/06/13 05:07:07;;;;;;;3.30;2.40;;;12.60;99.90;;;;;;5030979;28;20447;-69
2021/06/13 05:09:37;;;;;;;3.40;1.83;;;12.50;99.90;;;;;;5031199;28;20440;-70
2021/06/13 05:12:06;;;;;;;7.00;2.00;;;12.50;99.90;;;;;;5031104;28;20438;-69
2021/06/13 05:14:34;;;;;;;2.30;1.60;;;12.50;99.90;;;;;;5032468;28;20430;-69
2021/06/13 05:17:03;;;;;;;5.83;3.40;;;12.40;99.90;;;;;;5015795;28;20455;-69
2021/06/13 05:19:31;;;;;;;4.87;2.43;;;12.60;99.90;;;;;;5031410;28;20415;-68
2021/06/13 05:21:59;;;;;;;4.60;2.60;;;12.80;99.90;;;;;;5030926;28;20398;-68
2021/06/13 05:24:28;;;;;;;6.53;1.97;;;12.70;99.90;;;;;;5030955;28;20408;-68
2021/06/13 05:26:57;;;;;;;10.97;2.10;;;12.50;99.90;;;;;;5031260;28;20386;-69
2021/06/13 05:29:25;;;;;;;4.30;2.80;;;12.60;99.90;;;;;;5030408;28;20448;-68
2021/06/13 05:31:54;;;;;;;4.13;3.60;;;12.60;99.90;;;;;;5012845;28;20442;-68
2021/06/13 05:34:22;;;;;;;4.07;1.80;;;12.60;99.90;;;;;;5028841;28;20550;-69
2021/06/13 05:36:50;;;;;;;5.10;2.17;;;12.70;99.90;;;;;;5030790;28;20678;-68
2021/06/13 05:39:18;;;;;;;3.47;1.87;;;12.70;99.90;;;;;;5030465;28;20196;-69
2021/06/13 05:41:46;;;;;;;5.10;2.40;;;13.00;99.90;;;;;;5012949;28;20913;-69
2021/06/13 05:44:16;;;;;;;6.37;2.40;;;13.20;99.90;;;;;;5011908;28;20418;-69
2021/06/13 05:46:45;;;;;;;6.43;2.60;;;13.10;99.90;;;;;;5030381;28;20460;-68
2021/06/13 05:49:13;;;;;;;3.37;2.10;;;13.30;99.90;;;;;;5030051;28;20390;-68
2021/06/13 05:51:41;;;;;;;3.80;1.47;;;13.30;99.90;;;;;;5030357;28;20423;-69
2021/06/13 05:54:09;;;;;;;5.60;2.33;;;13.50;99.90;;;;;;5029957;28;20484;-68
2021/06/13 05:56:37;;;;;;;13.10;3.60;;;13.60;99.90;;;;;;5030446;28;20455;-69
2021/06/13 05:59:07;;;;;;;4.20;2.33;;;13.60;99.90;;;;;;5030122;28;20420;-69
2021/06/13 06:01:36;;;;;;;4.73;2.03;;;13.60;99.90;;;;;;5030320;28;20963;-69
2021/06/13 06:04:05;;;;;;;4.10;2.53;;;13.50;99.90;;;;;;5012299;28;20428;-69
2021/06/13 06:06:33;;;;;;;5.70;1.80;;;13.70;99.90;;;;;;5030161;28;20402;-69
2021/06/13 06:09:02;;;;;;;4.20;2.20;;;13.70;99.90;;;;;;5029972;28;20402;-69
2021/06/13 06:11:30;;;;;;;5.10;1.63;;;13.70;99.90;;;;;;5029985;28;20427;-70
2021/06/13 06:13:59;;;;;;;7.40;2.47;;;13.90;99.90;;;;;;5029935;28;20450;-69
2021/06/13 06:16:27;;;;;;;5.83;1.80;;;13.90;99.90;;;;;;5030351;28;20845;-69
2021/06/13 06:18:56;;;;;;;4.67;2.13;;;13.70;99.90;;;;;;5030282;28;20411;-68
2021/06/13 06:21:25;;;;;;;9.40;2.10;;;13.60;99.90;;;;;;5030415;28;20466;-69
2021/06/13 06:23:53;;;;;;;5.80;1.73;;;13.50;99.90;;;;;;5029906;28;20405;-68
2021/06/13 06:26:22;;;;;;;7.30;2.10;;;13.50;99.90;;;;;;5030290;28;20403;-70
2021/06/13 06:28:50;;;;;;;7.80;2.43;;;13.50;99.90;;;;;;5013240;28;20442;-69
2021/06/13 06:31:18;;;;;;;4.30;1.87;;;13.50;99.90;;;;;;5030896;28;20439;-69
2021/06/13 06:33:47;;;;;;;9.30;2.40;;;13.70;99.90;;;;;;5030574;28;20482;-69
2021/06/13 06:36:16;;;;;;;3.90;2.67;;;13.80;99.90;;;;;;5030249;28;20463;-69
2021/06/13 06:38:44;;;;;;;2.87;1.73;;;13.80;99.90;;;;;;5030200;28;20394;-69
2021/06/13 06:44:08;;;;;;;5.43;2.40;;;14.10;99.90;;;;;;5011473;28;20422;-70
2021/06/13 06:46:37;;;;;;;14.30;2.77;;;14.40;99.90;;;;;;5030139;28;20946;-69
2021/06/13 06:49:07;;;;;;;9.73;2.90;;;14.50;99.90;;;;;;5029921;28;20454;-69
2021/06/13 06:51:37;;;;;;;4.40;1.70;;;14.90;99.90;;;;;;5029521;28;20399;-70
2021/06/13 06:54:05;;;;;;;5.57;2.27;;;15.10;99.90;;;;;;5026299;28;21193;-70
2021/06/13 06:56:34;;;;;;;5.73;2.30;;;15.00;99.90;;;;;;5032362;28;20420;-70
2021/06/13 06:59:03;;;;;;;9.73;1.87;;;15.20;99.90;;;;;;5033508;28;20847;-70
2021/06/13 07:01:31;;;;;;;5.43;1.90;;;15.00;99.90;;;;;;5032761;28;20462;-70
2021/06/13 07:03:59;;;;;;;9.90;2.80;;;14.60;99.90;;;;;;5011950;28;20415;-70
2021/06/13 07:06:27;;;;;;;5.53;2.77;;;14.70;99.90;;;;;;5013236;28;20420;-69
2021/06/13 07:08:57;;;;;;;7.30;2.57;;;14.90;99.90;;;;;;5013387;28;20906;-70
2021/06/13 07:11:25;;;;;;;6.03;3.03;;;15.30;99.90;;;;;;5013146;28;20440;-70
2021/06/13 07:13:53;;;;;;;4.30;1.93;;;15.30;99.90;;;;;;5013167;28;20492;-70
2021/06/13 07:16:21;;;;;;;4.23;1.50;;;15.30;99.90;;;;;;5013169;28;20634;-71
2021/06/13 07:18:50;;;;;;;9.27;2.37;;;15.70;99.90;;;;;;5013223;28;20851;-68
2021/06/13 07:21:18;;;;;;;8.40;2.07;;;15.90;99.90;;;;;;5012761;28;20415;-69
2021/06/13 07:23:46;;;;;;;6.83;2.37;;;16.00;99.90;;;;;;5013024;28;20424;-70
2021/06/13 07:26:16;;;;;;;2.73;1.40;;;16.00;99.90;;;;;;5013309;28;20421;-69
2021/06/13 07:28:45;;;;;;;4.83;2.40;;;15.70;99.90;;;;;;5013133;28;20403;-69
2021/06/13 07:31:14;;;;;;;3.37;2.13;;;15.50;99.90;;;;;;5011959;28;20463;-70
2021/06/13 07:33:42;;;;;;;4.67;1.67;;;15.70;99.90;;;;;;5012845;28;20969;-70
2021/06/13 07:36:10;;;;;;;3.67;1.90;;;15.80;99.90;;;;;;5013068;28;20918;-70
2021/06/13 07:38:38;;;;;;;3.50;1.97;;;15.50;99.90;;;;;;5012158;28;20436;-69
2021/06/13 07:41:07;;;;;;;6.03;1.83;;;15.40;99.90;;;;;;5013161;28;20445;-69
2021/06/13 07:43:36;;;;;;;4.93;1.60;;;15.60;99.90;;;;;;5012737;28;20496;-68
2021/06/13 07:46:04;;;;;;;1.97;1.50;;;15.80;99.90;;;;;;5013009;28;20958;-69
2021/06/13 07:48:33;;;;;;;3.60;1.80;;;15.30;99.90;;;;;;5013799;28;20421;-70
2021/06/13 07:51:01;;;;;;;2.73;1.67;;;15.40;99.90;;;;;;5020753;28;20485;-69
2021/06/13 07:53:32;;;;;;;1.80;1.70;;;15.30;99.90;;;;;;5027437;28;20442;-70
2021/06/13 07:56:00;;;;;;;9.63;2.07;;;15.20;99.90;;;;;;5025818;28;20419;-69
2021/06/13 07:58:28;;;;;;;3.40;1.90;;;15.20;99.90;;;;;;5028860;28;20400;-69
2021/06/13 08:00:58;;;;;;;4.60;2.00;;;15.20;99.90;;;;;;5027185;28;20448;-68
2021/06/13 08:03:26;;;;;;;5.23;2.70;;;15.40;99.90;;;;;;5024330;28;20477;-68
2021/06/13 08:05:55;;;;;;;3.53;2.50;;;15.80;99.90;;;;;;5023630;28;20409;-69
2021/06/13 08:08:23;;;;;;;3.03;1.53;;;15.90;99.90;;;;;;5022921;28;20484;-70
2021/06/13 08:10:51;;;;;;;5.87;2.60;;;16.20;99.90;;;;;;5021304;28;20465;-69
2021/06/13 08:13:20;;;;;;;7.07;2.53;;;16.50;99.90;;;;;;5021316;28;20552;-70
2021/06/13 08:15:49;;;;;;;3.60;2.57;;;16.50;99.90;;;;;;5026113;28;20395;-68
2021/06/13 08:18:18;;;;;;;3.23;1.70;;;16.60;99.90;;;;;;5025707;28;20415;-70
2021/06/13 08:20:46;;;;;;;3.17;2.30;;;16.50;99.90;;;;;;5021671;28;20503;-70
2021/06/13 08:23:14;;;;;;;7.80;2.40;;;16.40;99.90;;;;;;5026354;28;20415;-69
2021/06/13 08:25:43;;;;;;;1.63;1.50;;;16.00;99.90;;;;;;5019629;28;20404;-69
2021/06/13 08:28:11;;;;;;;2.03;1.70;;;16.00;99.90;;;;;;5014882;28;20871;-69
2021/06/13 08:30:39;;;;;;;7.43;1.70;;;16.40;99.90;;;;;;5013711;28;20416;-69
2021/06/13 08:33:08;;;;;;;6.97;3.23;;;16.60;99.90;;;;;;5012309;28;20512;-70
2021/06/13 08:35:38;;;;;;;5.17;1.77;;;16.70;99.90;;;;;;5010968;28;20556;-70
2021/06/13 08:38:06;;;;;;;3.80;2.53;;;16.50;99.90;;;;;;5011501;28;20400;-70
2021/06/13 08:40:34;;;;;;;8.57;5.87;;;16.70;99.90;;;;;;5011856;28;20453;-70
2021/06/13 08:43:03;;;;;;;7.83;2.87;;;16.80;99.90;;;;;;5012003;28;20521;-70
2021/06/13 08:45:34;;;;;;;4.37;2.27;;;16.80;99.90;;;;;;5011892;28;20425;-70
2021/06/13 08:48:04;;;;;;;4.60;2.20;;;16.90;99.90;;;;;;5011530;28;20400;-68
2021/06/13 08:50:33;;;;;;;3.30;1.83;;;16.50;99.90;;;;;;5011266;28;20503;-69
2021/06/13 08:53:04;;;;;;;3.87;2.40;;;15.90;99.90;;;;;;5011257;28;20440;-70
2021/06/13 08:55:33;;;;;;;4.70;2.40;;;16.10;99.90;;;;;;5011139;28;20926;-69
2021/06/13 08:58:02;;;;;;;3.20;1.70;;;16.40;99.90;;;;;;5011609;28;21012;-68
2021/06/13 09:00:32;;;;;;;5.17;2.20;;;16.40;99.90;;;;;;5011545;28;20522;-70
2021/06/13 09:03:02;;;;;;;3.17;2.33;;;15.70;99.90;;;;;;5011813;28;20440;-69
2021/06/13 09:05:31;;;;;;;10.13;2.50;;;15.40;99.90;;;;;;5028336;28;20424;-70
2021/06/13 09:08:01;;;;;;;4.43;3.50;;;15.20;99.90;;;;;;5032812;28;20420;-70
2021/06/13 09:10:32;;;;;;;7.53;3.43;;;15.10;99.90;;;;;;5035020;28;20422;-69
2021/06/13 09:13:10;;;;;;;6.40;2.40;;;15.20;99.90;;;;;;5033437;28;20428;-69
2021/06/13 09:15:41;;;;;;;4.90;1.93;;;15.40;99.90;;;;;;5013442;28;20454;-69
2021/06/13 09:18:10;;;;;;;4.13;2.80;;;15.70;99.90;;;;;;5036917;23;20473;-72
2021/06/13 09:20:43;;;;;;;3.30;2.03;;;15.80;99.90;;;;;;5037766;28;20440;-72
2021/06/13 09:23:15;;;;;;;5.80;2.57;;;15.70;99.90;;;;;;5030742;28;20450;-71
2021/06/13 09:25:46;;;;;;;6.90;2.10;;;15.40;99.90;;;;;;5030878;28;20903;-72
2021/06/13 09:28:17;;;;;;;2.73;1.93;;;15.00;99.90;;;;;;5030721;28;20515;-72
2021/06/13 09:30:47;;;;;;;4.57;3.00;;;14.50;99.90;;;;;;5030730;28;20436;-72
2021/06/13 09:33:19;;;;;;;5.97;3.47;;;13.90;99.90;;;;;;5030669;28;20446;-71
2021/06/13 09:35:49;;;;;;;3.30;2.20;;;13.60;99.90;;;;;;5030694;28;20459;-73
2021/06/13 09:38:20;;;;;;;7.53;3.10;;;13.60;99.90;;;;;;5030568;28;20420;-73
2021/06/13 09:40:53;;;;;;;5.30;2.60;;;13.50;99.90;;;;;;5028797;28;20555;-72
2021/06/13 09:43:24;;;;;;;7.67;3.20;;;13.40;99.90;;;;;;5029130;28;20409;-70
2021/06/13 09:45:56;;;;;;;9.20;2.90;;;13.20;99.90;;;;;;5030755;28;20428;-71
2021/06/13 09:48:26;;;;;;;9.20;4.20;;;13.30;99.90;;;;;;5029886;28;20434;-72
2021/06/13 09:50:56;;;;;;;3.17;2.73;;;13.60;99.90;;;;;;5030015;28;20440;-70
2021/06/13 09:53:47;;;;;;;4.57;2.67;;;14.10;99.90;;;;;;5029629;28;20399;-72
2021/06/13 09:56:27;;;;;;;4.87;3.03;;;14.80;99.90;;;;;;5024366;28;20487;-71
2021/06/13 09:58:58;;;;;;;10.40;9.03;;;15.60;99.90;;;;;;5030010;28;20488;-71
2021/06/13 10:01:30;;;;;;;5.83;2.57;;;15.90;99.90;;;;;;5029751;28;20555;-72
2021/06/13 10:04:00;;;;;;;5.87;3.10;;;16.00;99.90;;;;;;5029523;28;20470;-70
2021/06/13 10:06:30;;;;;;;6.17;2.63;;;16.60;99.90;;;;;;5029873;28;20457;-71
2021/06/13 10:09:00;;;;;;;18.87;11.83;;;17.00;99.90;;;;;;5029991;28;20957;-73
2021/06/13 10:11:29;;;;;;;12.73;6.10;;;17.20;99.90;;;;;;5029349;28;20454;-71
2021/06/13 10:13:59;;;;;;;6.50;5.87;;;17.40;99.90;;;;;;5029071;28;20953;-72
2021/06/13 10:16:36;;;;;;;5.30;2.50;;;17.20;99.90;;;;;;5030019;28;20467;-70
2021/06/13 10:19:07;;;;;;;2.77;2.47;;;16.90;99.90;;;;;;5030111;28;20940;-72
2021/06/13 10:21:37;;;;;;;5.47;2.67;;;16.50;99.90;;;;;;5030869;28;20911;-72
2021/06/13 10:24:09;;;;;;;4.80;3.13;;;16.40;99.90;;;;;;5030727;28;20996;-73
2021/06/13 10:26:41;;;;;;;5.60;4.50;;;16.30;99.90;;;;;;5033437;28;20450;-72
2021/06/13 10:29:10;;;;;;;5.40;3.20;;;16.30;99.90;;;;;;5032953;28;20402;-72
2021/06/13 10:31:39;;;;;;;4.37;2.80;;;16.60;99.90;;;;;;5033761;28;20449;-71
2021/06/13 10:34:07;;;;;;;4.53;2.40;;;16.60;99.90;;;;;;5033871;28;20399;-71
2021/06/13 10:36:37;;;;;;;6.00;2.10;;;16.50;99.90;;;;;;5034700;28;20966;-72
2021/06/13 10:39:07;;;;;;;6.83;3.70;;;16.60;99.90;;;;;;5016236;28;20849;-71
2021/06/13 10:41:36;;;;;;;6.17;2.37;;;16.60;99.90;;;;;;5034224;28;20405;-71
2021/06/13 10:44:09;;;;;;;3.40;1.87;;;16.70;99.90;;;;;;5033394;28;20391;-72
2021/06/13 10:46:39;;;;;;;3.10;2.53;;;16.60;99.90;;;;;;5033722;28;20898;-72
2021/06/13 10:49:27;;;;;;;7.07;2.20;;;16.60;99.90;;;;;;5033992;28;20757;-71
2021/06/13 10:52:05;;;;;;;5.20;2.97;;;16.60;99.90;;;;;;5034160;28;20482;-70
2021/06/13 10:54:36;;;;;;;3.00;2.03;;;16.50;99.90;;;;;;5034094;28;20416;-71
2021/06/13 10:57:32;;;;;;;3.50;1.97;;;16.50;99.90;;;;;;5016084;28;20442;-72
2021/06/13 11:00:25;;;;;;;2.87;2.57;;;16.30;99.90;;;;;;5020570;28;21349;-71
2021/06/13 11:03:00;;;;;;;4.20;2.40;;;16.20;99.90;;;;;;5033846;28;20944;-72
2021/06/13 11:05:40;;;;;;;5.67;2.73;;;16.00;99.90;;;;;;5033163;28;20522;-71
2021/06/13 11:08:10;;;;;;;4.53;3.23;;;16.10;99.90;;;;;;5033516;28;20940;-70
2021/06/13 11:10:38;;;;;;;4.57;2.70;;;15.90;99.90;;;;;;5034002;28;20426;-71
2021/06/13 11:13:10;;;;;;;6.70;3.53;;;15.80;99.90;;;;;;5033622;28;20403;-72
2021/06/13 11:16:04;;;;;;;4.80;2.47;;;15.80;99.90;;;;;;5033359;28;20459;-71
2021/06/13 11:18:40;;;;;;;6.77;3.23;;;16.10;99.90;;;;;;5032789;28;20450;-71
2021/06/13 11:21:22;;;;;;;6.83;2.87;;;16.60;99.90;;;;;;5033693;28;20462;-70
2021/06/13 11:23:59;;;;;;;5.70;2.70;;;16.80;99.90;;;;;;5033102;28;20394;-71
2021/06/13 11:26:40;;;;;;;3.83;2.83;;;16.80;99.90;;;;;;5033806;28;20754;-72
2021/06/13 11:29:13;;;;;;;10.33;3.40;;;16.90;99.90;;;;;;5033051;28;20431;-72
2021/06/13 11:31:50;;;;;;;7.63;3.47;;;17.30;99.90;;;;;;5032919;28;20854;-72
2021/06/13 11:34:19;;;;;;;3.87;2.30;;;17.40;99.90;;;;;;5033160;28;20414;-71
2021/06/13 11:36:49;;;;;;;3.10;2.27;;;17.30;99.90;;;;;;5033018;28;20522;-72
2021/06/13 11:39:25;;;;;;;3.87;2.40;;;17.20;99.90;;;;;;5031460;28;20402;-72
2021/06/13 11:42:09;;;;;;;4.43;2.40;;;17.20;99.90;;;;;;5031739;28;20399;-73
2021/06/13 11:44:41;;;;;;;5.23;2.53;;;17.10;99.90;;;;;;5031149;28;20471;-72
2021/06/13 11:47:32;;;;;;;2.90;1.93;;;17.20;99.90;;;;;;5030825;28;20410;-73
2021/06/13 11:50:05;;;;;;;5.53;2.20;;;17.00;99.90;;;;;;5032381;28;20470;-71
2021/06/13 11:53:10;;;;;;;4.97;2.17;;;17.20;99.90;;;;;;5036221;28;20439;-72
2021/06/13 11:56:03;;;;;;;5.83;2.93;;;17.40;99.90;;;;;;5025741;28;20471;-70
2021/06/13 11:58:32;;;;;;;3.53;2.07;;;17.60;99.90;;;;;;5032400;28;20412;-72
2021/06/13 12:01:02;;;;;;;4.80;2.87;;;17.90;99.90;;;;;;5031983;28;20444;-72
2021/06/13 12:03:32;;;;;;;8.20;4.10;;;18.10;99.90;;;;;;5014075;28;20414;-72
2021/06/13 12:06:14;;;;;;;5.00;3.33;;;18.30;99.90;;;;;;5031899;28;20511;-74
2021/06/13 12:08:43;;;;;;;4.60;2.70;;;18.00;99.90;;;;;;5032146;28;20391;-71
2021/06/13 12:11:32;;;;;;;5.07;3.20;;;17.70;99.90;;;;;;5032043;28;20468;-73
2021/06/13 12:14:18;;;;;;;3.70;2.77;;;17.70;99.90;;;;;;5031178;28;20401;-73
2021/06/13 12:16:46;;;;;;;4.80;3.23;;;17.70;99.90;;;;;;5032036;28;20960;-74
2021/06/13 12:19:24;;;;;;;7.03;4.23;;;17.70;99.90;;;;;;5031652;28;20432;-73
2021/06/13 12:21:52;;;;;;;6.53;2.73;;;17.90;99.90;;;;;;5032479;28;20428;-74
2021/06/13 12:24:38;;;;;;;6.30;3.20;;;18.10;99.90;;;;;;5032370;28;20489;-75
2021/06/13 12:27:22;;;;;;;4.90;3.30;;;18.20;99.90;;;;;;5032639;28;20431;-72
2021/06/13 12:29:50;;;;;;;3.80;2.87;;;18.70;99.90;;;;;;5032393;28;20482;-73
2021/06/13 12:32:18;;;;;;;4.53;3.33;;;18.80;99.90;;;;;;5031274;28;20399;-74
2021/06/13 12:34:53;;;;;;;9.70;3.90;;;18.60;99.90;;;;;;5031145;28;20519;-74
2021/06/13 12:37:22;;;;;;;4.87;2.60;;;18.40;99.90;;;;;;5031179;28;20471;-73
2021/06/13 12:39:55;;;;;;;4.97;2.77;;;18.50;99.90;;;;;;5031373;28;20965;-73
2021/06/13 12:42:24;;;;;;;5.87;3.47;;;18.50;99.90;;;;;;5030976;28;20383;-73
2021/06/13 12:45:00;;;;;;;4.17;2.93;;;18.80;99.90;;;;;;5029799;28;20439;-73
2021/06/13 12:47:29;;;;;;;3.67;2.97;;;18.70;99.90;;;;;;5030980;28;20420;-73
2021/06/13 12:49:59;;;;;;;5.13;2.67;;;18.40;99.90;;;;;;5030753;28;20440;-72
2021/06/13 12:52:29;;;;;;;8.33;3.53;;;18.30;99.90;;;;;;5029880;28;20763;-74
2021/06/13 12:55:02;;;;;;;6.93;2.70;;;18.30;99.90;;;;;;5030714;28;20741;-73
2021/06/13 12:57:31;;;;;;;4.43;3.20;;;18.50;99.90;;;;;;5030981;28;20939;-72
2021/06/13 13:00:00;;;;;;;6.10;2.80;;;18.70;99.90;;;;;;5030733;28;20418;-72
2021/06/13 13:02:28;;;;;;;4.93;2.97;;;18.80;99.90;;;;;;5030440;28;20854;-73
2021/06/13 13:04:59;;;;;;;8.57;3.40;;;19.20;99.90;;;;;;5030395;28;20418;-72
2021/06/13 13:07:29;;;;;;;5.47;3.77;;;19.50;99.90;;;;;;5030800;28;20804;-73
2021/06/13 13:10:07;;;;;;;4.37;3.30;;;19.30;99.90;;;;;;5030107;28;20423;-75